sensor_id;sensor_type;location;lat;lon;timestamp;temperature;humidity
16635;DHT22;8431;52.458;9.998;2023-06-22T00:02:17;16.50;99.90
16635;DHT22;8431;52.458;9.998;2023-06-22T00:04:44;16.40;99.90
16635;DHT22;8431;52.458;9.998;2023-06-22T00:07:12;16.30;99.90
16635;DHT22;8431;52.458;9.998;2023-06-22T00:09:39;16.20;99.90
16635;DHT22;8431;52.458;9.998;2023-06-22T00:12:07;16.20;99.90
16635;DHT22;8431;52.458;9.998;2023-06-22T00:14:34;16.20;99.90
16635;DHT22;8431;52.458;9.998;2023-06-22T00:17:01;16.40;99.90
16635;DHT22;8431;52.458;9.998;2023-06-22T00:19:28;16.50;99.90
16635;DHT22;8431;52.458;9.998;2023-06-22T00:21:55;16.50;99.90
16635;DHT22;8431;52.458;9.998;2023-06-22T00:24:27;16.40;99.90
16635;DHT22;8431;52.458;9.998;2023-06-22T00:26:54;16.30;99.90
16635;DHT22;8431;52.458;9.998;2023-06-22T00:29:21;16.20;99.90
16635;DHT22;8431;52.458;9.998;2023-06-22T00:31:47;16.10;99.90
16635;DHT22;8431;52.458;9.998;2023-06-22T00:34:14;16.10;99.90
16635;DHT22;8431;52.458;9.998;2023-06-22T00:36:42;16.10;99.90
16635;DHT22;8431;52.458;9.998;2023-06-22T00:39:12;16.00;99.90
16635;DHT22;8431;52.458;9.998;2023-06-22T00:41:41;16.00;99.90
16635;DHT22;8431;52.458;9.998;2023-06-22T00:44:07;16.00;99.90
16635;DHT22;8431;52.458;9.998;2023-06-22T00:46:34;16.00;99.90
16635;DHT22;8431;52.458;9.998;2023-06-22T00:49:01;16.00;99.90
16635;DHT22;8431;52.458;9.998;2023-06-22T00:51:31;15.90;99.90
16635;DHT22;8431;52.458;9.998;2023-06-22T00:53:58;15.80;99.90
16635;DHT22;8431;52.458;9.998;2023-06-22T00:56:26;15.90;99.90
16635;DHT22;8431;52.458;9.998;2023-06-22T00:58:57;16.00;99.90
16635;DHT22;8431;52.458;9.998;2023-06-22T01:01:25;16.10;99.90
16635;DHT22;8431;52.458;9.998;2023-06-22T01:03:52;16.20;99.90
16635;DHT22;8431;52.458;9.998;2023-06-22T01:06:27;16.10;99.90
16635;DHT22;8431;52.458;9.998;2023-06-22T01:09:02;16.00;99.90
16635;DHT22;8431;52.458;9.998;2023-06-22T01:11:37;16.00;99.90
16635;DHT22;8431;52.458;9.998;2023-06-22T01:14:14;16.00;99.90
16635;DHT22;8431;52.458;9.998;2023-06-22T01:16:44;15.90;99.90
16635;DHT22;8431;52.458;9.998;2023-06-22T01:19:24;15.70;99.90
16635;DHT22;8431;52.458;9.998;2023-06-22T01:21:55;15.60;99.90
16635;DHT22;8431;52.458;9.998;2023-06-22T01:24:27;15.50;99.90
16635;DHT22;8431;52.458;9.998;2023-06-22T01:27:00;15.50;99.90
16635;DHT22;8431;52.458;9.998;2023-06-22T01:29:37;15.50;99.90
16635;DHT22;8431;52.458;9.998;2023-06-22T01:32:06;15.60;99.90
16635;DHT22;8431;52.458;9.998;2023-06-22T01:34:34;15.60;99.90
16635;DHT22;8431;52.458;9.998;2023-06-22T01:37:02;15.60;99.90
16635;DHT22;8431;52.458;9.998;2023-06-22T01:39:30;15.50;99.90
16635;DHT22;8431;52.458;9.998;2023-06-22T01:41:58;15.50;99.90
16635;DHT22;8431;52.458;9.998;2023-06-22T01:44:26;15.50;99.90
16635;DHT22;8431;52.458;9.998;2023-06-22T01:46:59;15.40;99.90
16635;DHT22;8431;52.458;9.998;2023-06-22T01:49:26;15.40;99.90
16635;DHT22;8431;52.458;9.998;2023-06-22T01:51:53;15.30;99.90
16635;DHT22;8431;52.458;9.998;2023-06-22T01:54:20;15.30;99.90
16635;DHT22;8431;52.458;9.998;2023-06-22T01:56:47;15.30;99.90
16635;DHT22;8431;52.458;9.998;2023-06-22T01:59:20;15.40;99.90
16635;DHT22;8431;52.458;9.998;2023-06-22T02:01:54;15.50;99.90
16635;DHT22;8431;52.458;9.998;2023-06-22T02:04:27;15.50;99.90
16635;DHT22;8431;52.458;9.998;2023-06-22T02:06:58;15.50;99.90
16635;DHT22;8431;52.458;9.998;2023-06-22T02:09:29;15.40;99.90
16635;DHT22;8431;52.458;9.998;2023-06-22T02:11:57;15.40;99.90
16635;DHT22;8431;52.458;9.998;2023-06-22T02:14:25;15.40;99.90
16635;DHT22;8431;52.458;9.998;2023-06-22T02:16:52;15.40;99.90
16635;DHT22;8431;52.458;9.998;2023-06-22T02:19:24;15.30;99.90
16635;DHT22;8431;52.458;9.998;2023-06-22T02:21:51;15.30;99.90
16635;DHT22;8431;52.458;9.998;2023-06-22T02:24:18;15.30;99.90
16635;DHT22;8431;52.458;9.998;2023-06-22T02:26:45;15.30;99.90
16635;DHT22;8431;52.458;9.998;2023-06-22T02:29:12;15.40;99.90
16635;DHT22;8431;52.458;9.998;2023-06-22T02:31:39;15.30;99.90
16635;DHT22;8431;52.458;9.998;2023-06-22T02:34:06;15.40;99.90
16635;DHT22;8431;52.458;9.998;2023-06-22T02:36:34;15.50;99.90
16635;DHT22;8431;52.458;9.998;2023-06-22T02:39:01;15.60;99.90
16635;DHT22;8431;52.458;9.998;2023-06-22T02:41:29;15.60;99.90
16635;DHT22;8431;52.458;9.998;2023-06-22T02:43:56;15.60;99.90
16635;DHT22;8431;52.458;9.998;2023-06-22T02:46:23;15.50;99.90
16635;DHT22;8431;52.458;9.998;2023-06-22T02:48:50;15.60;99.90
16635;DHT22;8431;52.458;9.998;2023-06-22T02:51:17;15.60;99.90
16635;DHT22;8431;52.458;9.998;2023-06-22T02:53:45;15.60;99.90
16635;DHT22;8431;52.458;9.998;2023-06-22T02:56:12;15.60;99.90
16635;DHT22;8431;52.458;9.998;2023-06-22T02:58:39;15.60;99.90
16635;DHT22;8431;52.458;9.998;2023-06-22T03:01:06;15.50;99.90
16635;DHT22;8431;52.458;9.998;2023-06-22T03:03:33;15.40;99.90
16635;DHT22;8431;52.458;9.998;2023-06-22T03:06:01;15.30;99.90
16635;DHT22;8431;52.458;9.998;2023-06-22T03:08:28;15.20;99.90
16635;DHT22;8431;52.458;9.998;2023-06-22T03:10:57;15.20;99.90
16635;DHT22;8431;52.458;9.998;2023-06-22T03:13:24;15.20;99.90
16635;DHT22;8431;52.458;9.998;2023-06-22T03:15:51;15.10;99.90
16635;DHT22;8431;52.458;9.998;2023-06-22T03:18:18;15.10;99.90
16635;DHT22;8431;52.458;9.998;2023-06-22T03:20:48;15.10;99.90
16635;DHT22;8431;52.458;9.998;2023-06-22T03:23:14;15.10;99.90
16635;DHT22;8431;52.458;9.998;2023-06-22T03:25:42;15.10;99.90
16635;DHT22;8431;52.458;9.998;2023-06-22T03:28:11;15.10;99.90
16635;DHT22;8431;52.458;9.998;2023-06-22T03:30:38;15.10;99.90
16635;DHT22;8431;52.458;9.998;2023-06-22T03:33:05;15.20;99.90
16635;DHT22;8431;52.458;9.998;2023-06-22T03:35:32;15.20;99.90
16635;DHT22;8431;52.458;9.998;2023-06-22T03:37:59;15.30;99.90
16635;DHT22;8431;52.458;9.998;2023-06-22T03:40:26;15.40;99.90
16635;DHT22;8431;52.458;9.998;2023-06-22T03:42:53;15.50;99.90
16635;DHT22;8431;52.458;9.998;2023-06-22T03:45:22;15.60;99.90
16635;DHT22;8431;52.458;9.998;2023-06-22T03:47:49;15.70;99.90
16635;DHT22;8431;52.458;9.998;2023-06-22T03:50:16;15.70;99.90
16635;DHT22;8431;52.458;9.998;2023-06-22T03:52:45;15.90;99.90
16635;DHT22;8431;52.458;9.998;2023-06-22T03:55:12;16.00;99.90
16635;DHT22;8431;52.458;9.998;2023-06-22T03:57:39;16.10;99.90
16635;DHT22;8431;52.458;9.998;2023-06-22T04:00:07;16.20;99.90
16635;DHT22;8431;52.458;9.998;2023-06-22T04:02:37;16.30;99.90
16635;DHT22;8431;52.458;9.998;2023-06-22T04:05:05;16.50;99.90
16635;DHT22;8431;52.458;9.998;2023-06-22T04:07:32;16.60;99.90
16635;DHT22;8431;52.458;9.998;2023-06-22T04:09:59;16.70;99.90
16635;DHT22;8431;52.458;9.998;2023-06-22T04:12:26;16.90;99.90
16635;DHT22;8431;52.458;9.998;2023-06-22T04:14:53;17.00;99.90
16635;DHT22;8431;52.458;9.998;2023-06-22T04:17:20;17.10;99.90
16635;DHT22;8431;52.458;9.998;2023-06-22T04:19:51;17.30;99.90
16635;DHT22;8431;52.458;9.998;2023-06-22T04:22:18;17.50;99.90
16635;DHT22;8431;52.458;9.998;2023-06-22T04:24:45;17.60;99.90
16635;DHT22;8431;52.458;9.998;2023-06-22T04:27:12;17.70;99.90
16635;DHT22;8431;52.458;9.998;2023-06-22T04:29:39;17.80;99.90
16635;DHT22;8431;52.458;9.998;2023-06-22T04:32:14;17.90;99.90
16635;DHT22;8431;52.458;9.998;2023-06-22T04:34:41;17.90;99.90
16635;DHT22;8431;52.458;9.998;2023-06-22T04:37:09;18.00;99.90
16635;DHT22;8431;52.458;9.998;2023-06-22T04:39:45;18.10;99.90
16635;DHT22;8431;52.458;9.998;2023-06-22T04:42:12;18.10;99.90
16635;DHT22;8431;52.458;9.998;2023-06-22T04:44:39;18.00;99.90
16635;DHT22;8431;52.458;9.998;2023-06-22T04:47:07;18.10;99.90
16635;DHT22;8431;52.458;9.998;2023-06-22T04:49:35;18.30;99.90
16635;DHT22;8431;52.458;9.998;2023-06-22T04:52:04;18.40;99.90
16635;DHT22;8431;52.458;9.998;2023-06-22T04:54:34;18.60;99.90
16635;DHT22;8431;52.458;9.998;2023-06-22T04:57:01;18.80;99.90
16635;DHT22;8431;52.458;9.998;2023-06-22T04:59:29;19.00;99.90
16635;DHT22;8431;52.458;9.998;2023-06-22T05:01:57;19.10;99.90
16635;DHT22;8431;52.458;9.998;2023-06-22T05:04:25;19.20;99.90
16635;DHT22;8431;52.458;9.998;2023-06-22T05:06:54;19.30;99.90
16635;DHT22;8431;52.458;9.998;2023-06-22T05:09:21;19.30;99.90
16635;DHT22;8431;52.458;9.998;2023-06-22T05:11:49;19.30;99.90
16635;DHT22;8431;52.458;9.998;2023-06-22T05:14:17;19.20;99.90
16635;DHT22;8431;52.458;9.998;2023-06-22T05:16:45;19.30;99.90
16635;DHT22;8431;52.458;9.998;2023-06-22T05:19:12;19.40;99.90
16635;DHT22;8431;52.458;9.998;2023-06-22T05:21:39;19.50;99.90
16635;DHT22;8431;52.458;9.998;2023-06-22T05:24:06;19.60;99.90
16635;DHT22;8431;52.458;9.998;2023-06-22T05:26:34;19.60;99.90
16635;DHT22;8431;52.458;9.998;2023-06-22T05:29:03;19.60;99.90
16635;DHT22;8431;52.458;9.998;2023-06-22T05:31:30;19.70;99.90
16635;DHT22;8431;52.458;9.998;2023-06-22T05:33:57;19.80;99.90
16635;DHT22;8431;52.458;9.998;2023-06-22T05:36:25;20.00;99.90
16635;DHT22;8431;52.458;9.998;2023-06-22T05:38:56;20.50;99.90
16635;DHT22;8431;52.458;9.998;2023-06-22T05:41:23;21.00;99.90
16635;DHT22;8431;52.458;9.998;2023-06-22T05:43:50;21.70;99.90
16635;DHT22;8431;52.458;9.998;2023-06-22T05:46:19;22.20;99.90
16635;DHT22;8431;52.458;9.998;2023-06-22T05:48:46;22.90;99.90
16635;DHT22;8431;52.458;9.998;2023-06-22T05:51:13;23.10;99.90
16635;DHT22;8431;52.458;9.998;2023-06-22T05:53:40;22.90;99.90
16635;DHT22;8431;52.458;9.998;2023-06-22T05:56:07;22.60;99.90
16635;DHT22;8431;52.458;9.998;2023-06-22T05:58:35;22.10;99.90
16635;DHT22;8431;52.458;9.998;2023-06-22T06:01:02;21.70;99.90
16635;DHT22;8431;52.458;9.998;2023-06-22T06:03:30;21.70;99.90
16635;DHT22;8431;52.458;9.998;2023-06-22T06:05:57;21.60;99.90
16635;DHT22;8431;52.458;9.998;2023-06-22T06:08:24;21.50;99.90
16635;DHT22;8431;52.458;9.998;2023-06-22T06:10:51;21.30;99.90
16635;DHT22;8431;52.458;9.998;2023-06-22T06:13:20;21.10;99.90
16635;DHT22;8431;52.458;9.998;2023-06-22T06:15:47;20.90;99.90
16635;DHT22;8431;52.458;9.998;2023-06-22T06:18:23;20.80;99.90
16635;DHT22;8431;52.458;9.998;2023-06-22T06:20:51;20.80;99.90
16635;DHT22;8431;52.458;9.998;2023-06-22T06:23:18;20.90;99.90
16635;DHT22;8431;52.458;9.998;2023-06-22T06:25:45;21.30;99.90
16635;DHT22;8431;52.458;9.998;2023-06-22T06:28:12;21.80;99.90
16635;DHT22;8431;52.458;9.998;2023-06-22T06:30:39;22.70;99.90
16635;DHT22;8431;52.458;9.998;2023-06-22T06:33:06;23.50;99.90
16635;DHT22;8431;52.458;9.998;2023-06-22T06:35:34;23.90;99.90
16635;DHT22;8431;52.458;9.998;2023-06-22T06:38:03;24.20;99.90
16635;DHT22;8431;52.458;9.998;2023-06-22T06:40:30;24.30;99.90
16635;DHT22;8431;52.458;9.998;2023-06-22T06:42:57;24.60;99.90
16635;DHT22;8431;52.458;9.998;2023-06-22T06:45:25;24.40;99.90
16635;DHT22;8431;52.458;9.998;2023-06-22T06:47:54;24.10;99.90
16635;DHT22;8431;52.458;9.998;2023-06-22T06:50:21;23.70;99.90
16635;DHT22;8431;52.458;9.998;2023-06-22T06:52:48;23.50;99.90
16635;DHT22;8431;52.458;9.998;2023-06-22T06:55:17;23.50;99.90
16635;DHT22;8431;52.458;9.998;2023-06-22T06:57:44;23.40;99.90
16635;DHT22;8431;52.458;9.998;2023-06-22T07:00:14;23.40;99.90
16635;DHT22;8431;52.458;9.998;2023-06-22T07:02:43;23.60;99.90
16635;DHT22;8431;52.458;9.998;2023-06-22T07:05:11;23.60;99.90
16635;DHT22;8431;52.458;9.998;2023-06-22T07:07:38;23.60;99.90
16635;DHT22;8431;52.458;9.998;2023-06-22T07:10:07;23.70;99.90
16635;DHT22;8431;52.458;9.998;2023-06-22T07:12:36;23.80;99.90
16635;DHT22;8431;52.458;9.998;2023-06-22T07:15:04;23.90;99.90
16635;DHT22;8431;52.458;9.998;2023-06-22T07:17:33;23.90;99.90
16635;DHT22;8431;52.458;9.998;2023-06-22T07:20:01;23.90;99.90
16635;DHT22;8431;52.458;9.998;2023-06-22T07:22:34;24.20;99.90
16635;DHT22;8431;52.458;9.998;2023-06-22T07:25:01;24.40;99.90
16635;DHT22;8431;52.458;9.998;2023-06-22T07:27:30;24.40;99.90
16635;DHT22;8431;52.458;9.998;2023-06-22T07:30:03;24.60;99.90
16635;DHT22;8431;52.458;9.998;2023-06-22T07:32:30;24.60;99.90
16635;DHT22;8431;52.458;9.998;2023-06-22T07:34:57;24.50;99.90
16635;DHT22;8431;52.458;9.998;2023-06-22T07:37:24;24.60;99.90
16635;DHT22;8431;52.458;9.998;2023-06-22T07:39:53;24.50;99.90
16635;DHT22;8431;52.458;9.998;2023-06-22T07:42:24;24.70;99.90
16635;DHT22;8431;52.458;9.998;2023-06-22T07:44:51;25.10;99.90
16635;DHT22;8431;52.458;9.998;2023-06-22T07:47:19;25.20;99.90
16635;DHT22;8431;52.458;9.998;2023-06-22T07:49:50;25.30;99.90
16635;DHT22;8431;52.458;9.998;2023-06-22T07:52:20;25.40;99.90
16635;DHT22;8431;52.458;9.998;2023-06-22T07:54:47;25.40;99.90
16635;DHT22;8431;52.458;9.998;2023-06-22T07:57:14;25.80;99.90
16635;DHT22;8431;52.458;9.998;2023-06-22T07:59:41;26.20;99.90
16635;DHT22;8431;52.458;9.998;2023-06-22T08:02:08;26.30;99.90
16635;DHT22;8431;52.458;9.998;2023-06-22T08:04:36;26.50;99.90
16635;DHT22;8431;52.458;9.998;2023-06-22T08:07:04;26.50;99.90
16635;DHT22;8431;52.458;9.998;2023-06-22T08:09:32;26.50;99.90
16635;DHT22;8431;52.458;9.998;2023-06-22T08:11:59;26.30;99.90
16635;DHT22;8431;52.458;9.998;2023-06-22T08:14:27;26.00;99.90
16635;DHT22;8431;52.458;9.998;2023-06-22T08:16:54;25.90;99.90
16635;DHT22;8431;52.458;9.998;2023-06-22T08:19:21;26.00;99.90
16635;DHT22;8431;52.458;9.998;2023-06-22T08:21:49;26.70;99.90
16635;DHT22;8431;52.458;9.998;2023-06-22T08:24:16;27.30;99.90
16635;DHT22;8431;52.458;9.998;2023-06-22T08:26:43;27.70;99.90
16635;DHT22;8431;52.458;9.998;2023-06-22T08:29:10;28.00;99.90
16635;DHT22;8431;52.458;9.998;2023-06-22T08:31:37;28.40;99.90
16635;DHT22;8431;52.458;9.998;2023-06-22T08:34:04;28.50;99.90
16635;DHT22;8431;52.458;9.998;2023-06-22T08:36:31;28.90;99.90
16635;DHT22;8431;52.458;9.998;2023-06-22T08:39:02;29.00;99.90
16635;DHT22;8431;52.458;9.998;2023-06-22T08:41:29;29.30;99.90
16635;DHT22;8431;52.458;9.998;2023-06-22T08:43:57;29.20;99.90
16635;DHT22;8431;52.458;9.998;2023-06-22T08:46:25;29.00;99.90
16635;DHT22;8431;52.458;9.998;2023-06-22T08:48:56;28.70;99.90
16635;DHT22;8431;52.458;9.998;2023-06-22T08:51:23;28.70;99.90
16635;DHT22;8431;52.458;9.998;2023-06-22T08:53:50;28.10;99.90
16635;DHT22;8431;52.458;9.998;2023-06-22T08:56:19;28.00;99.90
16635;DHT22;8431;52.458;9.998;2023-06-22T08:58:46;28.10;99.90
16635;DHT22;8431;52.458;9.998;2023-06-22T09:01:13;28.00;99.90
16635;DHT22;8431;52.458;9.998;2023-06-22T09:03:41;27.90;99.90
16635;DHT22;8431;52.458;9.998;2023-06-22T09:06:08;28.10;99.90
16635;DHT22;8431;52.458;9.998;2023-06-22T09:08:35;28.00;99.90
16635;DHT22;8431;52.458;9.998;2023-06-22T09:11:02;28.20;99.90
16635;DHT22;8431;52.458;9.998;2023-06-22T09:13:32;28.10;99.90
16635;DHT22;8431;52.458;9.998;2023-06-22T09:15:59;28.40;99.90
16635;DHT22;8431;52.458;9.998;2023-06-22T09:18:26;28.40;99.90
16635;DHT22;8431;52.458;9.998;2023-06-22T09:20:53;28.40;99.90
16635;DHT22;8431;52.458;9.998;2023-06-22T09:23:20;28.40;99.90
16635;DHT22;8431;52.458;9.998;2023-06-22T09:25:47;28.60;99.90
16635;DHT22;8431;52.458;9.998;2023-06-22T09:28:15;28.50;99.90
16635;DHT22;8431;52.458;9.998;2023-06-22T09:30:44;28.60;99.90
16635;DHT22;8431;52.458;9.998;2023-06-22T09:33:11;28.60;99.90
16635;DHT22;8431;52.458;9.998;2023-06-22T09:35:38;28.80;99.90
16635;DHT22;8431;52.458;9.998;2023-06-22T09:38:05;29.00;99.90
16635;DHT22;8431;52.458;9.998;2023-06-22T09:40:32;28.80;99.90
16635;DHT22;8431;52.458;9.998;2023-06-22T09:43:01;28.90;99.90
16635;DHT22;8431;52.458;9.998;2023-06-22T09:45:28;29.10;99.90
16635;DHT22;8431;52.458;9.998;2023-06-22T09:47:56;29.20;99.90
16635;DHT22;8431;52.458;9.998;2023-06-22T09:50:23;29.80;99.90
16635;DHT22;8431;52.458;9.998;2023-06-22T09:52:50;29.90;99.90
16635;DHT22;8431;52.458;9.998;2023-06-22T09:55:20;30.20;99.90
16635;DHT22;8431;52.458;9.998;2023-06-22T09:57:48;30.20;99.90
16635;DHT22;8431;52.458;9.998;2023-06-22T10:00:18;30.20;99.90
16635;DHT22;8431;52.458;9.998;2023-06-22T10:02:46;30.20;99.90
16635;DHT22;8431;52.458;9.998;2023-06-22T10:05:15;29.50;99.90
16635;DHT22;8431;52.458;9.998;2023-06-22T10:07:42;28.90;99.90
16635;DHT22;8431;52.458;9.998;2023-06-22T10:10:09;28.50;99.90
16635;DHT22;8431;52.458;9.998;2023-06-22T10:12:40;29.00;99.90
16635;DHT22;8431;52.458;9.998;2023-06-22T10:15:08;29.50;99.90
16635;DHT22;8431;52.458;9.998;2023-06-22T10:17:35;29.50;99.90
16635;DHT22;8431;52.458;9.998;2023-06-22T10:20:03;29.60;99.90
16635;DHT22;8431;52.458;9.998;2023-06-22T10:22:38;29.30;99.90
16635;DHT22;8431;52.458;9.998;2023-06-22T10:25:06;29.40;99.90
16635;DHT22;8431;52.458;9.998;2023-06-22T10:27:33;30.30;99.90
16635;DHT22;8431;52.458;9.998;2023-06-22T10:30:00;30.90;99.90
16635;DHT22;8431;52.458;9.998;2023-06-22T10:32:27;31.00;99.90
16635;DHT22;8431;52.458;9.998;2023-06-22T10:34:54;30.40;99.90
16635;DHT22;8431;52.458;9.998;2023-06-22T10:37:22;30.00;99.90
16635;DHT22;8431;52.458;9.998;2023-06-22T10:39:50;29.40;99.90
16635;DHT22;8431;52.458;9.998;2023-06-22T10:42:17;28.80;99.90
16635;DHT22;8431;52.458;9.998;2023-06-22T10:44:44;28.60;99.90
16635;DHT22;8431;52.458;9.998;2023-06-22T10:47:11;28.30;99.90
16635;DHT22;8431;52.458;9.998;2023-06-22T10:49:38;28.60;99.90
16635;DHT22;8431;52.458;9.998;2023-06-22T10:52:06;28.10;99.90
16635;DHT22;8431;52.458;9.998;2023-06-22T10:54:34;28.10;99.90
16635;DHT22;8431;52.458;9.998;2023-06-22T10:57:03;28.10;99.90
16635;DHT22;8431;52.458;9.998;2023-06-22T10:59:30;28.20;99.90
16635;DHT22;8431;52.458;9.998;2023-06-22T11:01:57;28.50;99.90
16635;DHT22;8431;52.458;9.998;2023-06-22T11:04:24;28.70;99.90
16635;DHT22;8431;52.458;9.998;2023-06-22T11:06:51;28.60;99.90
16635;DHT22;8431;52.458;9.998;2023-06-22T11:09:18;28.30;99.90
16635;DHT22;8431;52.458;9.998;2023-06-22T11:11:46;28.60;99.90
16635;DHT22;8431;52.458;9.998;2023-06-22T11:14:15;28.70;99.90
16635;DHT22;8431;52.458;9.998;2023-06-22T11:16:42;29.00;99.90
16635;DHT22;8431;52.458;9.998;2023-06-22T11:19:09;29.20;99.90
16635;DHT22;8431;52.458;9.998;2023-06-22T11:21:36;29.60;99.90
16635;DHT22;8431;52.458;9.998;2023-06-22T11:24:03;30.00;99.90
16635;DHT22;8431;52.458;9.998;2023-06-22T11:26:31;29.90;99.90
16635;DHT22;8431;52.458;9.998;2023-06-22T11:28:58;30.10;99.90
16635;DHT22;8431;52.458;9.998;2023-06-22T11:31:27;30.40;99.90
16635;DHT22;8431;52.458;9.998;2023-06-22T11:33:53;30.50;99.90
16635;DHT22;8431;52.458;9.998;2023-06-22T11:36:20;30.60;99.90
16635;DHT22;8431;52.458;9.998;2023-06-22T11:38:47;30.90;99.90
16635;DHT22;8431;52.458;9.998;2023-06-22T11:41:14;31.20;99.90
16635;DHT22;8431;52.458;9.998;2023-06-22T11:43:41;31.20;99.90
16635;DHT22;8431;52.458;9.998;2023-06-22T11:46:08;31.00;99.90
16635;DHT22;8431;52.458;9.998;2023-06-22T11:48:37;31.10;99.90
16635;DHT22;8431;52.458;9.998;2023-06-22T11:51:04;30.70;99.90
16635;DHT22;8431;52.458;9.998;2023-06-22T11:53:32;30.40;99.90
16635;DHT22;8431;52.458;9.998;2023-06-22T11:56:00;30.10;99.90
16635;DHT22;8431;52.458;9.998;2023-06-22T11:58:27;30.60;99.90
16635;DHT22;8431;52.458;9.998;2023-06-22T12:00:54;31.10;99.90
16635;DHT22;8431;52.458;9.998;2023-06-22T12:03:21;31.50;99.90
16635;DHT22;8431;52.458;9.998;2023-06-22T12:05:50;31.60;99.90
16635;DHT22;8431;52.458;9.998;2023-06-22T12:08:17;31.50;99.90
16635;DHT22;8431;52.458;9.998;2023-06-22T12:10:45;31.90;99.90
16635;DHT22;8431;52.458;9.998;2023-06-22T12:13:12;31.60;99.90
16635;DHT22;8431;52.458;9.998;2023-06-22T12:15:39;31.00;99.90
16635;DHT22;8431;52.458;9.998;2023-06-22T12:18:06;30.30;99.90
16635;DHT22;8431;52.458;9.998;2023-06-22T12:20:34;30.00;99.90
16635;DHT22;8431;52.458;9.998;2023-06-22T12:23:02;29.60;99.90
16635;DHT22;8431;52.458;9.998;2023-06-22T12:25:29;29.30;99.90
16635;DHT22;8431;52.458;9.998;2023-06-22T12:27:56;29.30;99.90
16635;DHT22;8431;52.458;9.998;2023-06-22T12:30:23;29.30;99.90
16635;DHT22;8431;52.458;9.998;2023-06-22T12:32:50;29.50;99.90
16635;DHT22;8431;52.458;9.998;2023-06-22T12:35:17;29.20;99.90
16635;DHT22;8431;52.458;9.998;2023-06-22T12:37:44;29.30;99.90
16635;DHT22;8431;52.458;9.998;2023-06-22T12:40:13;29.40;99.90
16635;DHT22;8431;52.458;9.998;2023-06-22T12:42:40;29.10;99.90
16635;DHT22;8431;52.458;9.998;2023-06-22T12:45:08;29.00;99.90
16635;DHT22;8431;52.458;9.998;2023-06-22T12:47:35;28.90;99.90
16635;DHT22;8431;52.458;9.998;2023-06-22T12:50:06;28.90;99.90
16635;DHT22;8431;52.458;9.998;2023-06-22T12:52:36;29.00;99.90
16635;DHT22;8431;52.458;9.998;2023-06-22T12:55:05;29.10;99.90
16635;DHT22;8431;52.458;9.998;2023-06-22T12:57:34;29.30;99.90
16635;DHT22;8431;52.458;9.998;2023-06-22T13:00:01;29.20;99.90
16635;DHT22;8431;52.458;9.998;2023-06-22T13:02:30;29.10;99.90
16635;DHT22;8431;52.458;9.998;2023-06-22T13:04:57;28.80;99.90
16635;DHT22;8431;52.458;9.998;2023-06-22T13:07:24;28.90;99.90
16635;DHT22;8431;52.458;9.998;2023-06-22T13:09:51;29.00;99.90
16635;DHT22;8431;52.458;9.998;2023-06-22T13:12:20;29.10;99.90
16635;DHT22;8431;52.458;9.998;2023-06-22T13:14:50;29.00;99.90
16635;DHT22;8431;52.458;9.998;2023-06-22T13:17:17;29.20;99.90
16635;DHT22;8431;52.458;9.998;2023-06-22T13:19:44;28.80;99.90
16635;DHT22;8431;52.458;9.998;2023-06-22T13:22:26;28.60;99.90
16635;DHT22;8431;52.458;9.998;2023-06-22T13:24:55;28.40;99.90
16635;DHT22;8431;52.458;9.998;2023-06-22T13:27:22;28.40;99.90
16635;DHT22;8431;52.458;9.998;2023-06-22T13:29:52;28.50;99.90
16635;DHT22;8431;52.458;9.998;2023-06-22T13:32:19;28.10;99.90
16635;DHT22;8431;52.458;9.998;2023-06-22T13:34:46;27.50;99.90
16635;DHT22;8431;52.458;9.998;2023-06-22T13:37:13;26.60;99.90
16635;DHT22;8431;52.458;9.998;2023-06-22T13:40:01;25.80;99.90
16635;DHT22;8431;52.458;9.998;2023-06-22T13:42:30;25.10;99.90
16635;DHT22;8431;52.458;9.998;2023-06-22T13:44:59;24.60;99.90
16635;DHT22;8431;52.458;9.998;2023-06-22T13:47:26;24.20;99.90
16635;DHT22;8431;52.458;9.998;2023-06-22T13:49:55;24.00;99.90
16635;DHT22;8431;52.458;9.998;2023-06-22T13:52:25;23.80;99.90
16635;DHT22;8431;52.458;9.998;2023-06-22T13:54:55;23.70;99.90
16635;DHT22;8431;52.458;9.998;2023-06-22T13:57:25;23.80;99.90
16635;DHT22;8431;52.458;9.998;2023-06-22T13:59:54;24.00;99.90
16635;DHT22;8431;52.458;9.998;2023-06-22T14:02:23;24.20;99.90
16635;DHT22;8431;52.458;9.998;2023-06-22T14:04:54;24.50;99.90
16635;DHT22;8431;52.458;9.998;2023-06-22T14:07:21;24.80;99.90
16635;DHT22;8431;52.458;9.998;2023-06-22T14:09:48;25.00;99.90
16635;DHT22;8431;52.458;9.998;2023-06-22T14:12:15;25.00;99.90
16635;DHT22;8431;52.458;9.998;2023-06-22T14:14:44;25.20;99.90
16635;DHT22;8431;52.458;9.998;2023-06-22T14:17:15;25.20;99.90
16635;DHT22;8431;52.458;9.998;2023-06-22T14:19:43;25.40;99.90
16635;DHT22;8431;52.458;9.998;2023-06-22T14:22:10;25.40;99.90
16635;DHT22;8431;52.458;9.998;2023-06-22T14:24:37;25.40;99.90
16635;DHT22;8431;52.458;9.998;2023-06-22T14:27:05;25.40;99.90
16635;DHT22;8431;52.458;9.998;2023-06-22T14:29:34;25.20;99.90
16635;DHT22;8431;52.458;9.998;2023-06-22T14:32:01;24.90;99.90
16635;DHT22;8431;52.458;9.998;2023-06-22T14:34:28;24.40;99.90
16635;DHT22;8431;52.458;9.998;2023-06-22T14:36:56;23.70;99.90
16635;DHT22;8431;52.458;9.998;2023-06-22T14:39:23;23.20;99.90
16635;DHT22;8431;52.458;9.998;2023-06-22T14:41:50;22.90;99.90
16635;DHT22;8431;52.458;9.998;2023-06-22T14:44:17;22.80;99.90
16635;DHT22;8431;52.458;9.998;2023-06-22T14:46:44;22.90;99.90
16635;DHT22;8431;52.458;9.998;2023-06-22T14:49:11;23.10;99.90
16635;DHT22;8431;52.458;9.998;2023-06-22T14:51:38;23.40;99.90
16635;DHT22;8431;52.458;9.998;2023-06-22T14:54:06;23.80;99.90
16635;DHT22;8431;52.458;9.998;2023-06-22T14:56:33;24.10;99.90
16635;DHT22;8431;52.458;9.998;2023-06-22T14:59:00;24.20;99.90
16635;DHT22;8431;52.458;9.998;2023-06-22T15:01:27;24.20;99.90
16635;DHT22;8431;52.458;9.998;2023-06-22T15:03:55;24.10;99.90
16635;DHT22;8431;52.458;9.998;2023-06-22T15:06:21;24.10;99.90
16635;DHT22;8431;52.458;9.998;2023-06-22T15:08:48;24.00;99.90
16635;DHT22;8431;52.458;9.998;2023-06-22T15:11:17;23.90;99.90
16635;DHT22;8431;52.458;9.998;2023-06-22T15:13:44;23.90;99.90
16635;DHT22;8431;52.458;9.998;2023-06-22T15:16:11;23.90;99.90
16635;DHT22;8431;52.458;9.998;2023-06-22T15:18:38;23.90;99.90
16635;DHT22;8431;52.458;9.998;2023-06-22T15:21:06;23.80;99.90
16635;DHT22;8431;52.458;9.998;2023-06-22T15:23:33;23.80;99.90
16635;DHT22;8431;52.458;9.998;2023-06-22T15:26:02;23.80;99.90
16635;DHT22;8431;52.458;9.998;2023-06-22T15:28:35;23.70;99.90
16635;DHT22;8431;52.458;9.998;2023-06-22T15:31:03;23.50;99.90
16635;DHT22;8431;52.458;9.998;2023-06-22T15:33:30;23.50;99.90
16635;DHT22;8431;52.458;9.998;2023-06-22T15:35:58;23.50;99.90
16635;DHT22;8431;52.458;9.998;2023-06-22T15:38:29;23.50;99.90
16635;DHT22;8431;52.458;9.998;2023-06-22T15:40:56;23.50;99.90
16635;DHT22;8431;52.458;9.998;2023-06-22T15:43:23;23.50;99.90
16635;DHT22;8431;52.458;9.998;2023-06-22T15:45:52;23.30;99.90
16635;DHT22;8431;52.458;9.998;2023-06-22T15:48:20;22.30;99.90
16635;DHT22;8431;52.458;9.998;2023-06-22T15:50:47;21.60;99.90